Time;durP1;ratioP1;P1;durP2;ratioP2;P2;SDS_P1;SDS_P2;PMS_P1;PMS_P2;Temp;Humidity;BMP_temperature;BMP_pressure;BME280_temperature;BME280_humidity;BME280_pressure;Samples;Min_cycle;Max_cycle;Signal;HPM_P1;HPM_P2
2021/08/20 00:00:09;;;;;;;1.60;1.50;;;20.20;57.60;;;;;;5039195;28;20559;-79
2021/08/20 00:02:40;;;;;;;1.23;1.13;;;20.20;57.70;;;;;;4989513;28;20180;-79
2021/08/20 00:05:07;;;;;;;1.20;1.10;;;20.20;57.70;;;;;;5005649;28;20191;-79
2021/08/20 00:07:37;;;;;;;1.17;1.08;;;20.20;57.70;;;;;;5022973;28;20171;-79
2021/08/20 00:10:11;;;;;;;1.48;1.27;;;20.20;57.70;;;;;;5072959;28;20184;-79
2021/08/20 00:12:38;;;;;;;1.20;1.10;;;20.20;57.80;;;;;;5021768;28;20191;-79
2021/08/20 00:15:04;;;;;;;1.35;1.10;;;20.20;57.80;;;;;;5030061;28;20289;-80
2021/08/20 00:17:34;;;;;;;1.70;1.45;;;20.20;57.80;;;;;;5022100;28;20183;-79
2021/08/20 00:20:04;;;;;;;1.38;1.27;;;20.20;57.80;;;;;;5021521;28;20186;-79
2021/08/20 00:22:38;;;;;;;1.60;1.50;;;20.20;57.80;;;;;;5107472;28;20222;-79
2021/08/20 00:25:04;;;;;;;1.13;1.02;;;20.20;57.80;;;;;;5106858;28;20218;-79
2021/08/20 00:27:30;;;;;;;2.22;1.20;;;20.20;57.80;;;;;;5021862;28;20205;-79
2021/08/20 00:30:00;;;;;;;1.65;1.30;;;20.20;57.80;;;;;;5022300;28;20160;-79
2021/08/20 00:32:30;;;;;;;1.30;1.20;;;20.20;57.80;;;;;;5107786;28;20187;-79
2021/08/20 00:34:56;;;;;;;1.77;1.17;;;20.20;57.80;;;;;;5107631;28;20211;-79
2021/08/20 00:37:22;;;;;;;1.25;1.15;;;20.20;57.80;;;;;;5021704;28;20186;-79
2021/08/20 00:39:48;;;;;;;1.27;1.17;;;20.20;57.80;;;;;;5021796;28;20172;-79
2021/08/20 00:42:18;;;;;;;1.52;1.42;;;20.20;57.80;;;;;;5023059;28;20152;-79
2021/08/20 00:44:44;;;;;;;1.45;1.35;;;20.20;57.80;;;;;;4988979;28;20195;-79
2021/08/20 00:47:10;;;;;;;1.35;1.25;;;20.20;57.80;;;;;;5073214;28;20534;-80
2021/08/20 00:49:36;;;;;;;1.38;1.08;;;20.20;57.80;;;;;;5021871;28;20186;-79
2021/08/20 00:52:07;;;;;;;1.45;1.27;;;20.20;57.80;;;;;;5005283;28;20543;-79
2021/08/20 00:54:37;;;;;;;1.55;1.30;;;20.20;57.90;;;;;;5008430;28;20787;-79
2021/08/20 00:57:07;;;;;;;1.40;1.30;;;20.20;57.80;;;;;;5093980;28;20180;-79
2021/08/20 00:59:36;;;;;;;1.73;1.45;;;20.20;57.90;;;;;;4991250;28;20179;-79
2021/08/20 01:02:03;;;;;;;1.30;1.20;;;20.20;57.90;;;;;;5094012;28;20191;-79
2021/08/20 01:04:29;;;;;;;1.50;1.40;;;20.20;57.90;;;;;;5009724;28;20191;-79
2021/08/20 01:07:01;;;;;;;1.65;1.55;;;20.20;58.00;;;;;;5026170;28;20199;-79
2021/08/20 01:09:32;;;;;;;1.55;1.45;;;20.20;58.60;;;;;;5008495;28;20187;-79
2021/08/20 01:11:58;;;;;;;1.50;1.40;;;20.20;58.00;;;;;;5093515;28;20179;-79
2021/08/20 01:14:28;;;;;;;1.23;1.13;;;20.30;58.00;;;;;;5018341;28;20230;-79
2021/08/20 01:17:00;;;;;;;1.30;1.20;;;20.20;58.00;;;;;;4989085;28;20217;-79
2021/08/20 01:19:30;;;;;;;1.48;1.33;;;20.30;58.00;;;;;;5072060;28;20177;-80
2021/08/20 01:22:06;;;;;;;1.40;1.30;;;20.20;58.00;;;;;;5056115;28;20184;-79
2021/08/20 01:24:32;;;;;;;1.77;1.67;;;20.20;58.00;;;;;;5073666;28;20214;-79
2021/08/20 01:27:03;;;;;;;1.27;1.17;;;20.20;58.00;;;;;;4989041;28;20351;-80
2021/08/20 01:29:33;;;;;;;1.63;1.52;;;20.20;58.10;;;;;;5073674;28;20249;-79
2021/08/20 01:31:59;;;;;;;1.30;1.20;;;20.20;58.10;;;;;;5056800;28;20192;-80
2021/08/20 01:34:25;;;;;;;1.38;1.27;;;20.30;58.10;;;;;;4988530;28;20204;-79
2021/08/20 01:36:55;;;;;;;1.45;1.30;;;20.20;58.10;;;;;;4988100;28;20221;-79
2021/08/20 01:39:24;;;;;;;1.30;1.20;;;20.20;58.10;;;;;;5072712;28;20184;-79
2021/08/20 01:41:54;;;;;;;1.40;1.30;;;20.20;58.10;;;;;;5056538;28;20184;-79
2021/08/20 01:44:24;;;;;;;1.50;1.33;;;20.20;58.10;;;;;;5073260;28;20184;-79
2021/08/20 01:46:50;;;;;;;1.40;1.30;;;20.20;58.20;;;;;;5000440;28;20643;-81
2021/08/20 01:49:21;;;;;;;1.52;1.40;;;20.20;58.20;;;;;;4993472;28;20171;-82
2021/08/20 01:51:47;;;;;;;1.40;1.30;;;20.20;58.20;;;;;;5043755;28;20184;-81
2021/08/20 01:54:16;;;;;;;1.30;1.20;;;20.20;58.10;;;;;;4993460;28;20669;-81
2021/08/20 01:56:42;;;;;;;1.52;1.30;;;20.20;58.20;;;;;;5060198;28;20176;-81
2021/08/20 01:59:09;;;;;;;1.40;1.30;;;20.20;58.20;;;;;;4993778;28;20165;-81
2021/08/20 02:01:35;;;;;;;1.27;1.17;;;20.20;58.20;;;;;;4993607;28;20646;-82
2021/08/20 02:04:01;;;;;;;1.30;1.20;;;20.20;58.20;;;;;;4992451;28;20194;-81
2021/08/20 02:06:27;;;;;;;1.30;1.20;;;20.20;58.20;;;;;;4992192;28;20243;-82
2021/08/20 02:08:53;;;;;;;1.20;1.10;;;20.20;58.20;;;;;;4993505;28;20156;-83
2021/08/20 02:11:19;;;;;;;1.33;1.23;;;20.20;58.20;;;;;;4993433;28;20175;-82
2021/08/20 02:13:45;;;;;;;1.40;1.30;;;20.20;58.20;;;;;;4994104;28;20156;-82
2021/08/20 02:16:11;;;;;;;1.35;1.13;;;20.20;58.20;;;;;;5033273;28;20170;-81
2021/08/20 02:18:37;;;;;;;1.42;1.33;;;20.20;58.20;;;;;;5032856;28;20166;-81
2021/08/20 02:21:03;;;;;;;1.35;1.25;;;20.20;58.20;;;;;;5032444;28;20159;-81
2021/08/20 02:23:34;;;;;;;1.23;1.13;;;20.20;58.20;;;;;;5015448;28;20563;-81
2021/08/20 02:26:00;;;;;;;1.30;1.20;;;20.20;58.30;;;;;;5082371;28;20183;-81
2021/08/20 02:28:26;;;;;;;1.52;1.42;;;20.20;58.30;;;;;;5032347;28;20645;-81
2021/08/20 02:30:53;;;;;;;1.15;1.05;;;20.20;58.30;;;;;;5031357;28;20525;-81
2021/08/20 02:33:19;;;;;;;1.58;1.20;;;20.20;58.30;;;;;;5032288;28;20702;-81
2021/08/20 02:35:49;;;;;;;1.30;1.20;;;20.20;58.30;;;;;;5031967;28;20710;-82
2021/08/20 02:38:15;;;;;;;1.40;1.30;;;20.20;58.40;;;;;;5099602;28;20252;-81
2021/08/20 02:40:41;;;;;;;1.20;1.10;;;20.20;58.30;;;;;;5014193;28;20614;-81
2021/08/20 02:43:07;;;;;;;1.58;1.48;;;20.20;58.40;;;;;;5014518;28;20518;-82
2021/08/20 02:45:33;;;;;;;1.25;1.15;;;20.20;58.40;;;;;;5031952;28;20166;-82
2021/08/20 02:47:59;;;;;;;1.10;1.00;;;20.20;58.40;;;;;;5014345;28;20314;-82
2021/08/20 02:50:25;;;;;;;1.50;1.40;;;20.10;58.30;;;;;;5031922;28;20250;-81
2021/08/20 02:52:54;;;;;;;1.65;1.30;;;20.20;58.40;;;;;;5031903;28;20211;-81
2021/08/20 02:55:24;;;;;;;1.50;1.25;;;20.20;58.40;;;;;;5082487;28;20217;-82
2021/08/20 02:57:50;;;;;;;1.40;1.30;;;20.10;58.40;;;;;;5082498;28;20209;-82
2021/08/20 03:00:16;;;;;;;1.83;1.50;;;20.10;58.40;;;;;;5014150;28;20151;-81
2021/08/20 03:02:42;;;;;;;1.20;1.10;;;20.20;59.10;;;;;;5031828;28;20182;-81
2021/08/20 03:05:08;;;;;;;1.20;1.10;;;20.20;58.50;;;;;;5032100;28;20159;-81
2021/08/20 03:07:34;;;;;;;1.27;1.17;;;20.20;58.50;;;;;;5014454;28;20183;-82
2021/08/20 03:10:00;;;;;;;1.55;1.40;;;20.20;58.50;;;;;;5014006;28;20159;-82
2021/08/20 03:12:26;;;;;;;1.48;1.20;;;20.20;58.50;;;;;;5031556;28;20159;-82
2021/08/20 03:14:52;;;;;;;1.50;1.40;;;20.20;58.50;;;;;;5030628;28;20221;-81
2021/08/20 03:17:18;;;;;;;1.58;1.40;;;20.20;58.50;;;;;;5013895;28;20166;-82
2021/08/20 03:19:48;;;;;;;1.20;1.10;;;20.20;58.50;;;;;;5031821;28;20622;-81
2021/08/20 03:22:18;;;;;;;1.20;1.10;;;20.20;58.50;;;;;;5082009;28;20208;-82
2021/08/20 03:24:44;;;;;;;1.70;1.30;;;20.20;58.50;;;;;;5082066;28;20190;-81
2021/08/20 03:27:10;;;;;;;1.45;1.25;;;20.20;58.50;;;;;;5031246;28;20169;-81
2021/08/20 03:29:40;;;;;;;1.50;1.40;;;20.20;58.50;;;;;;5013565;28;20242;-81
2021/08/20 03:32:06;;;;;;;0.90;0.90;;;20.10;58.50;;;;;;5082021;28;20186;-81
2021/08/20 03:34:32;;;;;;;1.30;1.20;;;20.20;58.50;;;;;;5013176;28;20235;-81
2021/08/20 03:37:02;;;;;;;1.20;1.10;;;20.10;58.50;;;;;;5031837;28;20159;-82
2021/08/20 03:39:28;;;;;;;1.30;1.20;;;20.20;58.50;;;;;;5081489;28;20174;-81
2021/08/20 03:41:54;;;;;;;1.23;1.10;;;20.20;58.50;;;;;;5031467;28;20510;-82
2021/08/20 03:44:24;;;;;;;1.45;1.35;;;20.20;58.60;;;;;;5014062;28;20170;-82
2021/08/20 03:46:50;;;;;;;1.35;1.25;;;20.20;58.60;;;;;;5082457;28;20637;-81
2021/08/20 03:49:16;;;;;;;1.20;1.10;;;20.20;58.60;;;;;;5031595;28;20176;-81
2021/08/20 03:51:42;;;;;;;1.30;1.20;;;20.20;58.60;;;;;;5031836;28;20192;-80
2021/08/20 03:54:08;;;;;;;1.30;1.20;;;20.20;58.60;;;;;;5031493;28;20198;-81
2021/08/20 03:56:34;;;;;;;0.90;0.90;;;20.20;58.60;;;;;;5014185;28;20151;-81
2021/08/20 03:59:00;;;;;;;1.58;1.38;;;20.20;58.60;;;;;;5032360;28;20219;-81
2021/08/20 04:01:26;;;;;;;1.55;1.30;;;20.20;58.60;;;;;;5013838;28;20204;-81
2021/08/20 04:03:56;;;;;;;1.60;1.50;;;20.20;58.60;;;;;;5014564;28;20184;-81
2021/08/20 04:06:22;;;;;;;1.35;1.25;;;20.20;58.70;;;;;;5082565;28;20190;-81
2021/08/20 04:08:52;;;;;;;1.50;1.40;;;20.20;58.70;;;;;;5032425;28;20207;-82
2021/08/20 04:11:17;;;;;;;1.23;1.13;;;20.20;58.70;;;;;;5100310;28;20198;-81
2021/08/20 04:13:43;;;;;;;1.30;1.20;;;20.20;58.70;;;;;;5032751;28;20186;-81
2021/08/20 04:16:10;;;;;;;1.23;1.13;;;20.10;58.60;;;;;;5035135;28;20207;-80
2021/08/20 04:18:40;;;;;;;1.35;1.15;;;20.20;58.70;;;;;;5016060;28;20155;-81
2021/08/20 04:21:07;;;;;;;1.27;1.05;;;20.20;58.50;;;;;;5085324;28;20706;-81
2021/08/20 04:23:34;;;;;;;1.10;1.00;;;20.20;58.20;;;;;;5016863;28;20156;-81
2021/08/20 04:26:04;;;;;;;0.90;0.85;;;20.10;58.10;;;;;;5032751;28;20167;-82
2021/08/20 04:28:33;;;;;;;1.30;1.20;;;20.10;58.00;;;;;;5002186;28;20194;-82
2021/08/20 04:30:59;;;;;;;1.17;1.00;;;20.10;58.20;;;;;;5088964;28;20206;-82
2021/08/20 04:33:25;;;;;;;1.45;1.00;;;20.00;58.10;;;;;;5037902;28;20626;-81
2021/08/20 04:35:56;;;;;;;1.13;1.02;;;20.00;58.20;;;;;;5019494;28;20195;-81
2021/08/20 04:38:26;;;;;;;1.13;1.02;;;20.00;58.20;;;;;;5088485;28;20736;-80
2021/08/20 04:40:52;;;;;;;1.00;1.00;;;20.00;58.20;;;;;;5088724;28;20584;-82
2021/08/20 04:43:18;;;;;;;0.95;0.90;;;20.00;58.20;;;;;;5038179;28;20156;-82
2021/08/20 04:45:49;;;;;;;0.85;0.80;;;20.00;58.10;;;;;;5038077;28;20162;-81
2021/08/20 04:48:15;;;;;;;1.10;1.00;;;20.00;58.10;;;;;;5088742;28;20537;-80
2021/08/20 04:50:41;;;;;;;1.30;1.00;;;20.00;58.10;;;;;;5019996;28;20182;-82
2021/08/20 04:53:12;;;;;;;0.93;0.90;;;20.00;57.90;;;;;;5037586;28;20214;-82
2021/08/20 04:55:41;;;;;;;0.82;0.77;;;20.00;57.80;;;;;;5105156;28;20218;-81
2021/08/20 04:58:07;;;;;;;1.00;0.90;;;20.00;57.80;;;;;;5071748;28;20190;-80
2021/08/20 05:00:34;;;;;;;0.95;0.90;;;20.10;57.90;;;;;;5019968;28;20155;-81
2021/08/20 05:03:04;;;;;;;1.20;1.10;;;20.10;57.90;;;;;;5020020;28;20250;-82
2021/08/20 05:05:30;;;;;;;0.80;0.80;;;20.10;57.90;;;;;;5089049;28;20335;-81
2021/08/20 05:07:57;;;;;;;0.88;0.82;;;20.10;57.90;;;;;;5038062;28;20209;-80
2021/08/20 05:10:23;;;;;;;1.85;0.93;;;20.10;57.90;;;;;;5020540;28;20159;-81
2021/08/20 05:12:49;;;;;;;1.10;1.00;;;20.10;57.90;;;;;;5039479;28;20207;-80
2021/08/20 05:15:15;;;;;;;1.00;0.90;;;20.20;58.00;;;;;;5038293;28;20238;-81
2021/08/20 05:17:41;;;;;;;1.13;1.10;;;20.20;58.00;;;;;;5020790;28;20170;-82
2021/08/20 05:20:11;;;;;;;1.02;0.93;;;20.20;57.90;;;;;;5038830;28;20517;-80
2021/08/20 05:22:52;;;;;;;0.95;0.90;;;20.20;58.00;;;;;;5106492;28;20189;-82
2021/08/20 05:25:19;;;;;;;1.17;1.08;;;20.20;57.80;;;;;;5086578;28;20182;-82
2021/08/20 05:27:45;;;;;;;1.15;0.85;;;20.30;57.80;;;;;;5021924;28;20648;-83
2021/08/20 05:30:11;;;;;;;1.00;0.98;;;20.30;57.70;;;;;;5004675;28;20174;-83
2021/08/20 05:32:42;;;;;;;0.90;0.90;;;20.30;57.80;;;;;;5018207;28;20271;-82
2021/08/20 05:35:13;;;;;;;1.33;0.95;;;20.30;57.90;;;;;;5083463;28;20241;-83
2021/08/20 05:37:39;;;;;;;1.30;1.00;;;20.30;58.00;;;;;;5103880;28;20209;-82
2021/08/20 05:40:06;;;;;;;1.08;1.00;;;20.30;58.00;;;;;;5036198;28;20562;-81
2021/08/20 05:42:32;;;;;;;1.13;1.02;;;20.20;57.90;;;;;;5002272;28;20159;-82
2021/08/20 05:45:05;;;;;;;0.98;0.90;;;20.30;57.90;;;;;;5018477;28;20173;-81
2021/08/20 05:47:31;;;;;;;1.00;0.82;;;20.30;57.90;;;;;;5087273;28;20186;-80
2021/08/20 05:50:01;;;;;;;0.90;0.90;;;20.30;57.80;;;;;;5002808;28;20258;-82
2021/08/20 05:52:27;;;;;;;1.10;1.00;;;20.40;57.80;;;;;;5103283;28;20597;-82
2021/08/20 05:54:57;;;;;;;0.80;0.80;;;20.40;57.80;;;;;;5047979;28;20186;-83
2021/08/20 05:57:27;;;;;;;1.00;0.90;;;20.40;57.80;;;;;;5072849;28;20265;-81
2021/08/20 05:59:52;;;;;;;0.73;0.73;;;20.40;57.60;;;;;;5016823;28;20221;-82
2021/08/20 06:02:18;;;;;;;0.80;0.80;;;20.40;57.60;;;;;;5018202;28;20163;-82
2021/08/20 06:04:44;;;;;;;0.82;0.80;;;20.50;58.60;;;;;;5018275;28;20167;-80
2021/08/20 06:07:14;;;;;;;1.52;0.90;;;20.50;57.90;;;;;;5036720;28;20178;-81
2021/08/20 06:09:40;;;;;;;1.70;0.93;;;20.50;57.90;;;;;;5001088;28;20214;-82
2021/08/20 06:12:07;;;;;;;1.23;1.00;;;20.50;58.30;;;;;;5017988;28;20216;-82
2021/08/20 06:14:33;;;;;;;0.90;0.90;;;20.50;58.40;;;;;;5042933;28;20223;-80
2021/08/20 06:16:59;;;;;;;1.02;0.90;;;20.50;58.30;;;;;;5015943;28;20896;-80
2021/08/20 06:19:26;;;;;;;0.95;0.90;;;20.60;58.30;;;;;;5026483;28;20163;-80
2021/08/20 06:21:53;;;;;;;1.23;0.90;;;20.60;58.20;;;;;;5024840;28;20159;-81
2021/08/20 06:24:19;;;;;;;1.38;1.10;;;20.60;58.20;;;;;;5045531;28;20298;-80
2021/08/20 06:26:46;;;;;;;3.08;1.38;;;20.60;57.90;;;;;;5042308;28;20223;-81
2021/08/20 06:29:19;;;;;;;1.10;1.00;;;20.70;58.00;;;;;;5041301;28;20218;-81
2021/08/20 06:31:45;;;;;;;1.08;0.98;;;20.60;58.20;;;;;;5091346;28;20190;-81
2021/08/20 06:34:11;;;;;;;1.33;1.10;;;20.70;58.00;;;;;;5058309;28;20158;-80
2021/08/20 06:36:37;;;;;;;0.80;0.77;;;20.60;57.90;;;;;;5058555;28;20166;-81
2021/08/20 06:39:07;;;;;;;1.35;0.98;;;20.60;57.70;;;;;;5057915;27;20173;-81
2021/08/20 06:41:37;;;;;;;0.80;0.80;;;20.70;57.80;;;;;;5073470;28;20517;-81
2021/08/20 06:44:04;;;;;;;0.82;0.80;;;20.70;57.80;;;;;;5108959;28;20178;-80
2021/08/20 06:46:29;;;;;;;1.20;0.90;;;20.70;57.80;;;;;;5058569;28;20166;-80
2021/08/20 06:48:55;;;;;;;1.10;1.00;;;20.70;57.70;;;;;;5058796;28;20532;-80
2021/08/20 06:51:21;;;;;;;0.80;0.80;;;20.70;57.80;;;;;;5058068;28;20241;-80
2021/08/20 06:53:47;;;;;;;0.88;0.80;;;20.70;58.30;;;;;;5041043;28;20162;-80
2021/08/20 06:56:14;;;;;;;2.00;0.90;;;20.70;57.60;;;;;;5059644;28;20194;-81
2021/08/20 06:58:45;;;;;;;1.13;1.02;;;20.70;57.50;;;;;;5058536;28;20158;-80
2021/08/20 07:01:10;;;;;;;0.93;0.90;;;20.70;57.40;;;;;;5022882;28;20189;-81
2021/08/20 07:03:36;;;;;;;0.90;0.90;;;20.80;57.30;;;;;;5058469;28;20620;-80
2021/08/20 07:06:05;;;;;;;0.80;0.80;;;20.80;57.30;;;;;;5057672;28;20170;-80
2021/08/20 07:08:32;;;;;;;0.98;0.80;;;20.80;57.30;;;;;;5108117;28;20224;-80
2021/08/20 07:11:00;;;;;;;0.70;0.70;;;20.80;57.30;;;;;;5092133;28;20281;-80
2021/08/20 07:13:27;;;;;;;0.77;0.77;;;20.80;57.20;;;;;;5091818;28;20204;-81
2021/08/20 07:15:55;;;;;;;0.80;0.80;;;20.80;57.10;;;;;;5108693;28;20312;-81
2021/08/20 07:18:22;;;;;;;1.05;0.93;;;20.80;57.10;;;;;;5091402;28;20178;-81
2021/08/20 07:20:49;;;;;;;0.63;0.63;;;20.80;57.10;;;;;;5107415;28;20581;-81
2021/08/20 07:23:15;;;;;;;0.82;0.82;;;20.80;57.10;;;;;;5092116;28;20649;-81
2021/08/20 07:25:41;;;;;;;0.70;0.70;;;20.90;57.00;;;;;;5038918;28;20165;-81
2021/08/20 07:28:08;;;;;;;0.90;0.80;;;20.90;57.00;;;;;;5057498;28;20158;-81
2021/08/20 07:30:34;;;;;;;1.17;0.90;;;20.80;56.90;;;;;;5021374;28;20526;-81
2021/08/20 07:32:59;;;;;;;1.08;0.90;;;20.90;56.90;;;;;;5038574;28;20170;-81
2021/08/20 07:35:26;;;;;;;1.10;0.70;;;20.90;56.80;;;;;;5038612;28;20728;-81
2021/08/20 07:37:53;;;;;;;0.80;0.80;;;20.90;56.80;;;;;;5106949;28;20189;-81
2021/08/20 07:40:20;;;;;;;0.70;0.70;;;20.90;56.80;;;;;;5091176;28;20396;-80
2021/08/20 07:42:46;;;;;;;0.88;0.88;;;20.90;56.70;;;;;;5092624;28;20189;-81
2021/08/20 07:45:11;;;;;;;0.80;0.80;;;20.90;56.70;;;;;;5041562;28;20166;-81
2021/08/20 07:47:47;;;;;;;0.80;0.77;;;20.90;56.70;;;;;;5041757;28;20157;-81
2021/08/20 07:50:13;;;;;;;0.80;0.80;;;20.90;56.70;;;;;;5024332;28;20187;-80
2021/08/20 07:52:40;;;;;;;0.80;0.68;;;20.90;57.50;;;;;;5058137;28;20249;-81
2021/08/20 07:55:11;;;;;;;0.70;0.70;;;20.90;56.70;;;;;;5057958;28;20605;-81
2021/08/20 07:57:53;;;;;;;1.05;0.90;;;21.00;56.70;;;;;;5091758;28;20636;-80
2021/08/20 08:00:25;;;;;;;1.10;1.00;;;20.90;56.70;;;;;;5040563;28;20161;-82
2021/08/20 08:02:51;;;;;;;0.70;0.70;;;21.00;56.60;;;;;;5026727;28;20174;-81
2021/08/20 08:05:17;;;;;;;0.70;0.70;;;21.00;56.50;;;;;;5045415;28;20162;-81
2021/08/20 08:07:43;;;;;;;1.30;1.02;;;21.00;56.40;;;;;;5045446;28;20177;-81
2021/08/20 08:10:13;;;;;;;0.82;0.70;;;21.00;56.40;;;;;;5063552;28;20173;-82
2021/08/20 08:12:39;;;;;;;0.95;0.95;;;21.10;56.40;;;;;;5097490;28;20177;-81
2021/08/20 08:15:06;;;;;;;0.80;0.80;;;21.00;56.30;;;;;;5045397;28;20225;-81
2021/08/20 08:17:37;;;;;;;0.80;0.70;;;21.00;56.40;;;;;;5045480;28;20173;-82
2021/08/20 08:20:08;;;;;;;2.15;0.90;;;21.00;56.30;;;;;;5114898;28;20178;-81
2021/08/20 08:22:38;;;;;;;1.05;0.70;;;21.10;56.30;;;;;;5097950;28;20178;-81
2021/08/20 08:25:09;;;;;;;1.10;0.70;;;21.10;56.40;;;;;;5081066;28;20212;-80
2021/08/20 08:27:57;;;;;;;0.60;0.60;;;21.00;56.30;;;;;;5113870;28;20178;-80
2021/08/20 08:30:28;;;;;;;0.85;0.85;;;21.00;56.40;;;;;;5027446;28;20697;-81
2021/08/20 08:32:55;;;;;;;0.90;0.90;;;21.00;56.50;;;;;;5096664;28;20185;-81
2021/08/20 08:35:21;;;;;;;0.90;0.70;;;21.00;56.40;;;;;;5063362;28;20197;-81
2021/08/20 08:37:47;;;;;;;0.75;0.73;;;21.00;56.40;;;;;;5045395;28;20206;-81
2021/08/20 08:40:17;;;;;;;0.70;0.70;;;21.00;56.40;;;;;;5062996;28;20165;-80
2021/08/20 08:42:47;;;;;;;0.98;0.68;;;21.00;56.50;;;;;;5114227;28;20182;-80
2021/08/20 08:45:17;;;;;;;0.90;0.68;;;21.00;56.40;;;;;;5114727;28;20186;-80
2021/08/20 08:47:47;;;;;;;1.95;0.70;;;21.00;56.40;;;;;;5097948;28;20267;-81
2021/08/20 08:50:13;;;;;;;0.70;0.70;;;21.00;56.20;;;;;;5114597;28;20188;-81
2021/08/20 08:52:39;;;;;;;0.60;0.60;;;21.10;56.40;;;;;;5062782;28;20166;-80
2021/08/20 08:55:06;;;;;;;0.73;0.70;;;21.10;56.20;;;;;;5045433;28;20190;-81
2021/08/20 08:57:32;;;;;;;1.02;0.93;;;21.10;56.20;;;;;;5028146;28;20264;-81
2021/08/20 09:00:03;;;;;;;0.70;0.60;;;21.10;56.90;;;;;;5030924;28;20624;-81
2021/08/20 09:02:30;;;;;;;0.70;0.70;;;21.10;56.20;;;;;;5114295;28;20197;-81
2021/08/20 09:04:59;;;;;;;0.73;0.73;;;21.10;56.20;;;;;;5046555;28;20159;-80
2021/08/20 09:07:34;;;;;;;0.70;0.70;;;21.10;56.30;;;;;;5064064;28;20150;-80
2021/08/20 09:10:22;;;;;;;0.70;0.70;;;21.10;56.10;;;;;;5029714;28;20193;-80
2021/08/20 09:12:56;;;;;;;0.95;0.80;;;21.10;56.40;;;;;;5029655;28;20210;-81
2021/08/20 09:15:30;;;;;;;0.77;0.73;;;21.00;56.20;;;;;;5113753;28;20225;-81
2021/08/20 09:18:02;;;;;;;0.80;0.80;;;21.00;56.40;;;;;;5080318;28;20178;-80
2021/08/20 09:20:33;;;;;;;0.90;0.73;;;21.00;56.40;;;;;;5115102;28;20636;-80
2021/08/20 09:23:00;;;;;;;2.05;0.82;;;21.00;56.40;;;;;;5097601;28;20178;-80
2021/08/20 09:25:33;;;;;;;0.68;0.68;;;21.00;56.10;;;;;;5029122;28;20227;-79
2021/08/20 09:28:21;;;;;;;0.73;0.73;;;21.10;56.10;;;;;;5115007;28;20708;-79
2021/08/20 09:31:03;;;;;;;0.93;0.80;;;21.10;56.40;;;;;;5029332;28;20213;-79
2021/08/20 09:33:47;;;;;;;0.70;0.70;;;21.10;56.20;;;;;;5047087;28;20636;-79
2021/08/20 09:36:19;;;;;;;0.80;0.80;;;21.00;56.00;;;;;;5111395;28;20206;-80
2021/08/20 09:38:50;;;;;;;0.70;0.50;;;21.10;56.00;;;;;;5080933;28;20249;-79
2021/08/20 09:41:30;;;;;;;1.08;0.80;;;21.10;55.80;;;;;;5063885;28;20285;-79
2021/08/20 09:43:59;;;;;;;0.80;0.80;;;21.10;56.10;;;;;;5114460;28;20232;-79
2021/08/20 09:46:25;;;;;;;0.82;0.70;;;21.10;56.10;;;;;;5046491;28;20167;-80
2021/08/20 09:48:53;;;;;;;3.90;0.70;;;21.10;56.00;;;;;;5046022;28;20174;-80
2021/08/20 09:51:43;;;;;;;1.17;0.80;;;21.10;56.00;;;;;;5063929;28;20162;-80
2021/08/20 09:54:14;;;;;;;2.55;0.80;;;21.10;55.90;;;;;;5046129;28;20181;-79
2021/08/20 09:56:41;;;;;;;0.82;0.60;;;21.10;55.90;;;;;;5046338;28;20163;-80
2021/08/20 09:59:08;;;;;;;1.10;0.70;;;21.10;55.90;;;;;;5062882;28;20233;-80
2021/08/20 10:01:37;;;;;;;1.25;0.60;;;21.10;55.90;;;;;;5028459;28;20176;-80
2021/08/20 10:04:05;;;;;;;0.80;0.60;;;21.20;55.70;;;;;;5062649;28;20175;-79
2021/08/20 10:06:40;;;;;;;1.92;0.70;;;21.20;56.00;;;;;;5028108;28;20257;-80
2021/08/20 10:09:08;;;;;;;0.80;0.80;;;21.10;55.90;;;;;;5061324;28;20249;-81
2021/08/20 10:11:39;;;;;;;1.80;0.80;;;21.10;56.50;;;;;;5041408;28;20150;-81
2021/08/20 10:14:05;;;;;;;1.40;0.90;;;21.10;55.90;;;;;;5039956;28;20233;-81
2021/08/20 10:16:34;;;;;;;0.60;0.60;;;21.10;56.00;;;;;;5027473;28;20184;-81
2021/08/20 10:19:00;;;;;;;0.68;0.68;;;21.10;55.90;;;;;;5046163;28;20185;-80
2021/08/20 10:21:29;;;;;;;1.27;0.70;;;21.10;56.00;;;;;;5030342;28;20170;-80
2021/08/20 10:24:00;;;;;;;3.25;0.85;;;21.10;56.10;;;;;;5029878;28;20166;-80
2021/08/20 10:26:25;;;;;;;0.93;0.82;;;21.10;56.20;;;;;;5097180;28;20232;-80
2021/08/20 10:28:51;;;;;;;1.10;0.70;;;21.10;56.00;;;;;;5044519;28;20162;-80
2021/08/20 10:31:19;;;;;;;1.33;0.80;;;21.10;55.70;;;;;;5061642;28;20613;-80
2021/08/20 10:33:45;;;;;;;1.73;0.70;;;21.20;55.90;;;;;;5027106;28;20174;-80
2021/08/20 10:36:15;;;;;;;1.23;0.75;;;21.20;56.20;;;;;;5043864;28;20190;-80
2021/08/20 10:38:49;;;;;;;0.90;0.60;;;21.10;56.00;;;;;;5095443;28;20278;-81
2021/08/20 10:41:20;;;;;;;0.80;0.80;;;21.10;56.10;;;;;;5111001;28;20182;-80
2021/08/20 10:44:06;;;;;;;1.35;0.60;;;21.10;56.40;;;;;;5112410;28;20178;-80
2021/08/20 10:46:55;;;;;;;1.60;0.90;;;21.10;57.10;;;;;;5094546;28;20309;-80
2021/08/20 10:49:24;;;;;;;0.88;0.68;;;21.10;57.00;;;;;;5046945;28;20249;-81
2021/08/20 10:52:00;;;;;;;1.05;0.90;;;21.10;55.90;;;;;;5095056;28;20272;-82
2021/08/20 10:55:06;;;;;;;2.20;0.60;;;21.20;55.70;;;;;;5095224;28;20216;-81
2021/08/20 10:58:06;;;;;;;1.70;0.73;;;21.20;55.40;;;;;;5026266;28;20601;-81
2021/08/20 11:00:37;;;;;;;0.73;0.70;;;21.20;55.40;;;;;;5031891;28;20199;-80
2021/08/20 11:03:08;;;;;;;1.70;0.80;;;21.20;55.50;;;;;;5112652;28;20731;-81
2021/08/20 11:05:43;;;;;;;0.70;0.60;;;21.30;55.50;;;;;;5094469;28;20261;-81
2021/08/20 11:08:35;;;;;;;1.55;0.73;;;21.30;55.40;;;;;;5110865;28;20301;-81
2021/08/20 11:11:27;;;;;;;1.65;0.80;;;21.30;55.60;;;;;;5027546;28;20170;-80
2021/08/20 11:14:26;;;;;;;0.90;0.80;;;21.30;55.60;;;;;;5103791;28;20186;-80
2021/08/20 11:16:54;;;;;;;0.70;0.60;;;21.20;55.90;;;;;;5060835;28;20165;-81
2021/08/20 11:19:44;;;;;;;0.52;0.52;;;21.20;55.70;;;;;;5111779;28;20190;-82
2021/08/20 11:22:21;;;;;;;0.80;0.70;;;21.20;55.70;;;;;;5061782;28;20158;-81
2021/08/20 11:25:08;;;;;;;0.60;0.60;;;21.20;55.90;;;;;;5109025;28;20189;-81
2021/08/20 11:27:37;;;;;;;1.85;0.95;;;21.10;55.80;;;;;;5044035;28;20165;-81
2021/08/20 11:30:08;;;;;;;1.33;1.00;;;21.10;55.60;;;;;;5112303;28;20620;-81
2021/08/20 11:32:40;;;;;;;0.70;0.70;;;21.10;55.50;;;;;;5094381;28;20241;-80
2021/08/20 11:35:08;;;;;;;0.85;0.63;;;21.10;55.80;;;;;;5111670;28;20213;-80
2021/08/20 11:37:52;;;;;;;0.82;0.70;;;21.10;55.50;;;;;;5093591;28;20186;-81
2021/08/20 11:40:19;;;;;;;0.60;0.60;;;21.10;55.50;;;;;;5043289;28;20155;-81
2021/08/20 11:43:05;;;;;;;0.90;0.60;;;21.10;55.10;;;;;;5111468;28;20210;-81
2021/08/20 11:45:32;;;;;;;1.20;0.80;;;21.20;55.00;;;;;;5042285;28;20162;-80
2021/08/20 11:47:59;;;;;;;0.75;0.75;;;21.20;55.00;;;;;;5043277;28;20150;-81
2021/08/20 11:50:30;;;;;;;1.05;0.70;;;21.10;55.20;;;;;;5061069;28;20566;-80
2021/08/20 11:52:56;;;;;;;0.68;0.68;;;21.10;54.90;;;;;;5096215;28;20265;-80
2021/08/20 11:55:27;;;;;;;1.02;0.68;;;21.10;54.60;;;;;;5061965;28;20194;-80
2021/08/20 11:57:53;;;;;;;0.73;0.70;;;21.10;55.00;;;;;;5096402;28;20265;-80
2021/08/20 12:00:19;;;;;;;0.70;0.70;;;21.10;55.00;;;;;;5062544;28;20154;-80
2021/08/20 12:02:45;;;;;;;0.65;0.60;;;21.10;55.00;;;;;;5063332;28;20181;-80
2021/08/20 12:05:18;;;;;;;0.70;0.70;;;21.10;54.50;;;;;;5064246;28;20169;-80
2021/08/20 12:07:44;;;;;;;0.75;0.70;;;21.10;54.40;;;;;;5096648;28;20186;-81
2021/08/20 12:10:11;;;;;;;1.00;0.90;;;21.10;54.60;;;;;;5044872;28;20202;-80
2021/08/20 12:12:42;;;;;;;0.70;0.70;;;21.10;54.60;;;;;;5044997;28;20162;-80
2021/08/20 12:15:10;;;;;;;1.42;0.70;;;21.10;54.60;;;;;;5095645;28;20228;-80
2021/08/20 12:17:41;;;;;;;0.80;0.77;;;21.10;54.40;;;;;;5044650;28;20168;-80
2021/08/20 12:20:27;;;;;;;0.82;0.65;;;21.10;54.40;;;;;;5096325;28;20273;-80
2021/08/20 12:23:01;;;;;;;0.75;0.63;;;21.10;54.20;;;;;;5095736;28;20188;-81
2021/08/20 12:25:29;;;;;;;0.60;0.60;;;21.10;54.20;;;;;;5043465;28;20207;-80
2021/08/20 12:27:58;;;;;;;0.80;0.70;;;21.20;54.30;;;;;;5112511;28;20190;-79
2021/08/20 12:30:28;;;;;;;0.80;0.80;;;21.20;54.00;;;;;;5079471;28;20190;-81
2021/08/20 12:32:56;;;;;;;0.73;0.73;;;21.30;53.90;;;;;;5093796;28;20186;-80
2021/08/20 12:35:24;;;;;;;1.77;0.80;;;21.30;54.10;;;;;;5095611;28;20309;-81
2021/08/20 12:38:22;;;;;;;1.20;0.88;;;21.30;53.30;;;;;;5113277;28;20270;-80
2021/08/20 12:40:56;;;;;;;0.80;0.60;;;21.30;53.20;;;;;;5062885;28;20158;-80
2021/08/20 12:43:37;;;;;;;0.73;0.70;;;21.30;54.10;;;;;;5095930;28;20260;-80
2021/08/20 12:46:22;;;;;;;0.88;0.80;;;21.30;53.70;;;;;;5028956;28;20203;-80
2021/08/20 12:49:02;;;;;;;0.70;0.70;;;21.20;53.60;;;;;;5013071;28;20182;-80
2021/08/20 12:51:29;;;;;;;1.05;0.60;;;21.10;53.80;;;;;;5098343;28;20201;-81
2021/08/20 12:54:04;;;;;;;1.67;0.70;;;21.10;53.80;;;;;;5047959;28;20189;-80
2021/08/20 12:56:36;;;;;;;0.90;0.90;;;21.20;53.70;;;;;;5049296;28;20225;-80
2021/08/20 12:59:20;;;;;;;0.82;0.65;;;21.20;53.60;;;;;;5028666;28;20245;-81